Current Month

Pierce College

Hourly Data | America/Los_Angeles
as of 3/3/21 4:08 PM PST
Date & Time Temp Max (°F) Temp Min (°F) RH (%) Dew Pt (°F) Latest Rain (In) Soil Temp (°F) Soil Moist (%) Wind Spd (mph) Wind Dir (°) Wind Gust (mph) Leaf Wet Raw (mV) Net Radiation (W/m²) Evap Pan Max Wind (mph) Evap Pan H2O Max Temp (°F) Evap Pan Level (In)
3/3/21 - 1600 55.7 53.9 53 37.7 0.00 58.1 42.9 2.7 E | 83 8.8 267 150 5.2 61.9 3.7
3/3/21 - 1500 54.8 51.8 54 37.2 0.00 58.2 42.9 4.1 E | 88 13.1 266 298 8.2 61.4 3.7
3/3/21 - 1400 51.9 49.0 63 37.9 0.00 58.0 42.9 4.0 E | 90 10.9 267 237 6.2 59.3 3.7
3/3/21 - 1300 49.5 47.4 75 40.8 0.00 58.3 42.9 3.7 NE | 54 11.1 269 183 8.3 57.0 3.7
3/3/21 - 1200 49.4 47.5 75 40.8 0.02 58.0 42.9 3.5 E | 97 9.6 302 146 5.2 55.6 3.7
3/3/21 - 1100 51.8 49.3 65 39.2 0.00 58.2 42.9 2.4 ESE | 108 8.7 389 82 5.5 58.2 3.7
3/3/21 - 1000 51.9 48.6 64 38.6 0.00 58.4 43.0 0.9 NE | 42 4.0 268 50 2.0 59.2 3.7
3/3/21 - 0900 48.7 46.1 49 29.1 0.00 58.4 43.1 0.9 WNW | 299 5.4 266 31 3.5 53.2 3.7
3/3/21 - 0800 46.2 36.5 54 26.4 0.00 58.8 43.1 0.5 NE | 40 3.0 266 61 1.4 50.4 3.7
3/3/21 - 0700 36.6 34.5 64 24.4 0.00 59.0 43.2 0.0 S | 180 0.9 267 -33 1.0 28.8 3.7
3/3/21 - 0600 35.8 34.7 67 25.3 0.00 59.3 43.2 0.1 S | 170 0.9 268 -59 0.8 24.0 3.7
3/3/21 - 0500 36.5 35.2 67 26.0 0.00 59.5 43.3 0.1 SSE | 152 0.9 268 -59 0.0 23.8 3.7
3/3/21 - 0400 37.4 36.1 64 25.8 0.00 59.6 43.4 0.2 S | 181 1.0 267 -61 0.8 27.4 3.7
3/3/21 - 0300 38.4 36.8 66 27.3 0.00 62.1 43.5 0.3 SSE | 162 1.4 267 -61 0.7 27.4 3.7
3/3/21 - 0200 39.9 38.0 59 26.0 0.00 60.0 43.6 0.1 S | 174 0.8 267 -62 0.0 28.5 3.7
3/3/21 - 0100 41.5 39.9 49 23.1 0.00 60.0 43.7 0.2 SSE | 164 1.5 266 -63 1.0 29.0 3.7
3/3/21 - 0000 42.9 41.0 41 20.1 0.00 60.3 43.7 0.4 SSE | 160 1.7 265 -65 0.6 30.4 3.7
3/2/21 - 2300 44.8 42.6 36 18.3 0.00 60.3 43.8 0.6 SSE | 168 2.1 265 -69 1.6 32.9 3.7
3/2/21 - 2200 47.4 44.1 30 16.2 0.00 60.5 43.9 0.7 S | 170 2.9 264 -70 1.7 34.5 3.7
3/2/21 - 2100 49.7 46.7 27 15.3 0.00 60.4 43.9 0.8 S | 180 3.3 264 -72 2.2 35.8 3.7
3/2/21 - 2000 52.8 49.6 23 14.6 0.00 60.5 44.0 0.6 SSE | 167 2.3 263 -76 1.9 39.6 3.7
3/2/21 - 1900 59.5 52.7 17 11.5 0.00 60.4 44.0 0.8 S | 173 2.7 262 -84 1.6 48.9 3.7
3/2/21 - 1800 67.5 59.4 9 4.3 0.00 59.9 44.0 1.6 S | 175 7.2 262 -87 4.3 67.9 3.7
3/2/21 - 1700 70.8 67.4 7 3.7 0.00 59.7 43.8 3.9 SSE | 166 9.3 261 46 7.5 75.5 3.8
3/2/21 - 1600 72.3 70.6 7 4.1 0.00 59.4 43.7 4.1 SE | 145 9.5 261 191 6.6 77.7 3.8
3/2/21 - 1500 73.9 71.6 7 5.1 0.00 59.1 43.6 4.2 SSE | 164 10.6 261 311 7.5 80.4 3.8
3/2/21 - 1400 75.0 72.3 7 5.2 0.00 58.6 43.4 4.1 SE | 131 9.8 260 416 7.3 81.5 3.7
3/2/21 - 1300 74.9 71.9 7 4.9 0.00 58.5 43.3 3.2 ESE | 103 8.3 260 464 5.4 81.5 3.7
3/2/21 - 1200 73.5 70.4 8 8.7 0.00 58.4 43.1 2.4 NE | 44 5.5 260 458 4.1 81.0 3.7
3/2/21 - 1100 71.0 66.9 9 8.7 0.00 58.6 43.1 2.1 NE | 42 4.8 260 412 3.4 77.4 3.8
3/2/21 - 1000 67.6 62.4 14 13.7 0.00 58.6 43.2 1.4 NE | 44 5.0 260 331 3.2 71.4 3.7
3/2/21 - 0900 62.6 51.7 27 23.4 0.00 59.0 43.4 0.3 N | 5 2.3 262 234 1.0 56.8 3.7
3/2/21 - 0800 52.0 38.0 38 20.9 0.00 59.3 43.5 0.3 E | 100 2.4 265 65 1.5 38.2 3.7
3/2/21 - 0700 38.4 36.1 50 19.6 0.00 59.1 43.5 0.2 SSE | 168 1.4 266 -51 1.3 27.3 3.7
3/2/21 - 0600 37.8 36.5 50 20.2 0.00 59.6 43.7 0.4 S | 171 2.3 266 -57 1.2 27.3 3.7
3/2/21 - 0500 38.4 37.4 50 20.7 0.00 59.5 43.7 0.1 S | 179 1.2 266 -57 1.3 28.7 3.7
3/2/21 - 0400 39.4 37.8 49 20.9 0.00 59.9 43.8 0.5 SSE | 160 2.2 266 -54 1.4 28.2 3.7
3/2/21 - 0300 40.2 38.9 44 19.6 0.00 60.2 43.9 0.1 SSE | 168 1.0 266 -57 0.5 27.2 3.7
3/2/21 - 0200 41.2 39.8 44 20.5 0.00 60.4 44.0 0.3 SSE | 159 1.7 265 -63 0.7 30.0 3.7
3/2/21 - 0100 42.9 41.2 41 20.3 0.00 60.6 44.0 0.5 SSE | 168 3.4 265 -64 1.8 30.7 3.7
3/2/21 - 0000 45.1 42.7 38 20.1 0.00 60.7 44.1 0.2 SSE | 151 1.3 265 -65 0.8 31.1 3.7
3/1/21 - 2300 46.5 44.7 38 21.2 0.00 60.7 44.2 0.7 SSE | 160 1.9 265 -67 1.4 33.7 3.7
3/1/21 - 2200 50.1 46.4 32 19.0 0.00 60.7 44.2 0.5 SSE | 168 1.8 264 -69 1.3 36.8 3.7
3/1/21 - 2100 52.8 49.8 26 17.5 0.00 60.8 44.3 0.3 S | 169 2.1 264 -73 1.6 40.3 3.7
3/1/21 - 2000 58.8 52.6 21 16.2 0.00 60.5 44.3 1.0 SSE | 168 2.7 263 -81 1.7 47.8 3.7
3/1/21 - 1900 63.9 58.5 16 14.4 0.00 60.5 44.3 2.5 SW | 232 4.9 262 -91 3.5 58.5 3.7
3/1/21 - 1800 69.6 63.8 10 8.8 0.00 60.2 44.2 2.0 SW | 226 5.7 262 -82 4.4 71.4 3.7
3/1/21 - 1700 70.9 69.4 9 7.7 0.00 59.1 44.1 3.5 SSW | 207 7.1 261 40 5.2 77.6 3.8
3/1/21 - 1600 75.2 70.6 8 8.8 0.00 59.5 44.0 3.2 S | 176 7.5 261 190 6.3 82.0 3.8
3/1/21 - 1500 75.1 73.7 7 5.2 0.00 59.5 43.8 2.1 ENE | 72 6.1 260 313 3.5 82.5 3.8
3/1/21 - 1400 75.1 72.3 7 6.3 0.00 59.5 43.7 2.0 NE | 55 7.4 260 403 5.7 80.2 3.7
3/1/21 - 1300 73.6 70.6 7 5.4 0.00 58.7 43.5 2.2 NE | 39 6.7 260 454 4.8 81.8 3.7
3/1/21 - 1200 71.8 68.8 8 5.4 0.00 58.8 43.4 2.3 NE | 40 7.2 260 455 4.5 80.5 3.7
3/1/21 - 1100 69.6 65.8 8 5.1 0.00 57.7 43.4 2.3 NE | 35 6.6 260 408 3.7 76.6 3.8
3/1/21 - 1000 66.0 62.2 10 7.2 0.00 57.2 43.4 1.9 NNE | 26 6.2 260 325 3.7 71.0 3.7
3/1/21 - 0900 62.4 52.7 17 13.0 0.00 59.1 43.7 0.7 NE | 53 2.7 260 225 2.0 58.3 3.7
3/1/21 - 0800 52.6 38.5 32 17.2 0.00 59.4 43.7 0.3 E | 86 1.6 264 63 1.3 38.3 3.7
3/1/21 - 0700 38.7 35.6 41 15.0 0.00 59.6 43.8 0.4 SSE | 166 2.2 265 -54 2.1 25.6 3.7
3/1/21 - 0600 38.2 36.4 38 14.2 0.00 59.9 43.9 0.3 S | 184 1.9 265 -62 1.5 25.6 3.7
3/1/21 - 0500 39.2 37.4 34 12.9 0.00 60.1 44.0 0.6 SSE | 161 2.4 265 -63 1.7 26.8 3.7
3/1/21 - 0400 41.3 38.8 29 10.8 0.00 60.4 44.1 0.4 SSE | 154 1.7 264 -63 1.2 27.7 3.7
3/1/21 - 0300 43.8 40.7 26 9.4 0.00 60.5 44.1 0.2 SSE | 168 2.2 264 -64 1.0 31.1 3.7
3/1/21 - 0200 45.1 43.4 24 10.0 0.00 60.7 44.2 0.8 SSE | 155 2.7 264 -67 1.8 32.8 3.7
3/1/21 - 0100 47.5 45.0 22 9.0 0.00 60.6 44.3 1.0 SSE | 156 3.1 263 -68 1.6 35.4 3.7
3/1/21 - 0000 47.8 46.4 20 8.4 0.00 60.9 44.4 1.2 SSE | 157 3.1 263 -71 2.4 36.2 3.7
Max 75.2 73.7 75 40.8 0.02 62.1 44.4 4.2 - 13.1 389 464 8.3 82.5 3.8
Avg 53.6 50.1 33 17.5 0.00 59.5 43.7 1.4 - 4.4 266 72 2.9 49.3 3.7
Min 35.8 34.5 7 3.7 0.00 57.2 42.9 0.0 - 0.8 260 -91 0.0 23.8 3.7
Total - - - - 0.02 - - - - - - - - - -